Terminal Aerodrome Forecast
Issued by NWS

Home | Current Version | Previous Version | Text Only | Print | Product List | Glossary On
Versions: 1 2 3 4 5 6 7 8 9 10 11 12 13
138
FTUS41 KCAR 281122
TAFHUL
TAF
KHUL 281122Z 2812/2912 00000KT P6SM BKN250
     FM282300 17004KT 3SM -SHRA OVC045
     FM290500 19009KT P6SM OVC008
     FM291100 22008KT P6SM BKN003=

USA.gov is the U.S. government's official web portal to all federal, state and local government web resources and services.